Time,TemperatureF,DewpointF,PressureIn,WindDirection,WindDirectionDegrees,WindSpeedMPH,WindSpeedGustMPH,Humidity,HourlyPrecipIn,Conditions,Clouds,dailyrainin,SoftwareType,DateUTC
2013-01-21 00:00:00,29.4,10.2,29.94,NW,315,6.0,17.0,44,0.00,,---,0.00,VWS V14.01,2013-01-21 05:00:00,
2013-01-21 00:05:00,29.4,10.7,29.94,West,270,5.0,12.0,45,0.00,,---,0.00,VWS V14.01,2013-01-21 05:05:00,
2013-01-21 00:10:00,29.3,11.1,29.94,NW,315,3.0,6.0,46,0.00,,---,0.00,VWS V14.01,2013-01-21 05:10:00,
2013-01-21 00:15:00,29.1,10.9,29.93,West,270,3.0,8.0,46,0.00,,---,0.00,VWS V14.01,2013-01-21 05:15:00,
2013-01-21 00:20:00,29.1,11.4,29.93,WNW,292,3.0,8.0,47,0.00,,---,0.00,VWS V14.01,2013-01-21 05:20:00,
2013-01-21 00:25:00,29.0,10.8,29.93,WNW,292,2.0,6.0,46,0.00,,---,0.00,VWS V14.01,2013-01-21 05:25:00,
2013-01-21 00:30:00,28.8,10.6,29.94,West,270,3.0,8.0,46,0.00,,---,0.00,VWS V14.01,2013-01-21 05:30:00,
2013-01-21 00:35:00,28.7,11.0,29.94,West,270,4.0,12.0,47,0.00,,---,0.00,VWS V14.01,2013-01-21 05:35:00,
2013-01-21 00:40:00,28.7,10.6,29.94,WNW,292,5.0,11.0,46,0.00,,---,0.00,VWS V14.01,2013-01-21 05:40:00,
2013-01-21 00:45:00,28.7,11.0,29.95,WSW,248,5.0,13.0,47,0.00,,---,0.00,VWS V14.01,2013-01-21 05:45:00,
2013-01-21 00:50:00,28.7,11.0,29.95,WNW,292,6.0,12.0,47,0.00,,---,0.00,VWS V14.01,2013-01-21 05:50:00,
2013-01-21 00:55:00,28.7,10.6,29.95,WSW,248,6.0,14.0,46,0.00,,---,0.00,VWS V14.01,2013-01-21 05:55:00,
2013-01-21 01:00:00,28.7,11.0,29.95,WSW,248,5.0,14.0,47,0.00,,---,0.00,VWS V14.01,2013-01-21 06:00:00,
2013-01-21 01:05:00,28.5,10.9,29.95,WSW,248,4.0,9.0,47,0.00,,---,0.00,VWS V14.01,2013-01-21 06:05:00,
2013-01-21 01:10:00,28.5,10.4,29.95,WSW,248,4.0,10.0,46,0.00,,---,0.00,VWS V14.01,2013-01-21 06:10:00,
2013-01-21 01:15:00,28.4,10.3,29.96,West,270,5.0,14.0,46,0.00,,---,0.00,VWS V14.01,2013-01-21 06:15:00,
2013-01-21 01:20:00,28.4,9.8,29.96,West,270,6.0,13.0,45,0.00,,---,0.00,VWS V14.01,2013-01-21 06:20:00,
2013-01-21 01:25:00,28.4,10.3,29.96,West,270,4.0,8.0,46,0.00,,---,0.00,VWS V14.01,2013-01-21 06:25:00,
2013-01-21 01:30:00,28.4,10.3,29.97,WNW,292,7.0,16.0,46,0.00,,---,0.00,VWS V14.01,2013-01-21 06:30:00,
2013-01-21 01:35:00,28.4,10.3,29.97,West,270,5.0,14.0,46,0.00,,---,0.00,VWS V14.01,2013-01-21 06:35:00,
2013-01-21 01:40:00,28.2,10.1,29.97,WNW,292,3.0,7.0,46,0.00,,---,0.00,VWS V14.01,2013-01-21 06:40:00,
2013-01-21 01:45:00,28.2,10.6,29.98,West,270,2.0,7.0,47,0.00,,---,0.00,VWS V14.01,2013-01-21 06:45:00,
2013-01-21 01:50:00,28.1,10.0,29.98,West,270,2.0,6.0,46,0.00,,---,0.00,VWS V14.01,2013-01-21 06:50:00,
2013-01-21 01:55:00,27.9,10.3,29.98,West,270,2.0,6.0,47,0.00,,---,0.00,VWS V14.01,2013-01-21 06:55:00,
2013-01-21 02:00:00,27.8,10.7,29.99,West,270,3.0,10.0,48,0.00,,---,0.00,VWS V14.01,2013-01-21 07:00:00,
2013-01-21 02:05:00,27.8,10.7,29.99,SSW,202,1.0,4.0,48,0.00,,---,0.00,VWS V14.01,2013-01-21 07:05:00,
2013-01-21 02:10:00,27.6,10.0,29.99,SW,225,3.0,10.0,47,0.00,,---,0.00,VWS V14.01,2013-01-21 07:10:00,
2013-01-21 02:15:00,27.5,10.4,30.00,WNW,292,2.0,7.0,48,0.00,,---,0.00,VWS V14.01,2013-01-21 07:15:00,
2013-01-21 02:20:00,27.5,9.9,30.00,WSW,248,4.0,10.0,47,0.00,,---,0.00,VWS V14.01,2013-01-21 07:20:00,
2013-01-21 02:25:00,27.5,10.4,30.00,West,270,3.0,7.0,48,0.00,,---,0.00,VWS V14.01,2013-01-21 07:25:00,
2013-01-21 02:30:00,27.5,10.4,30.00,West,270,5.0,13.0,48,0.00,,---,0.00,VWS V14.01,2013-01-21 07:30:00,
2013-01-21 02:35:00,27.5,10.4,30.00,West,270,3.0,7.0,48,0.00,,---,0.00,VWS V14.01,2013-01-21 07:35:00,
2013-01-21 02:40:00,27.3,9.7,30.00,WNW,292,2.0,6.0,47,0.00,,---,0.00,VWS V14.01,2013-01-21 07:40:00,
2013-01-21 02:45:00,27.3,9.7,30.01,West,270,4.0,10.0,47,0.00,,---,0.00,VWS V14.01,2013-01-21 07:45:00,
2013-01-21 02:50:00,27.2,9.6,30.01,WNW,292,3.0,12.0,47,0.00,,---,0.00,VWS V14.01,2013-01-21 07:50:00,
2013-01-21 02:55:00,27.2,9.6,30.01,WNW,292,4.0,8.0,47,0.00,,---,0.00,VWS V14.01,2013-01-21 07:55:00,
2013-01-21 03:00:00,27.2,10.1,30.01,West,270,4.0,13.0,48,0.00,,---,0.00,VWS V14.01,2013-01-21 08:00:00,
2013-01-21 03:05:00,27.0,10.4,30.01,NW,315,6.0,12.0,49,0.00,,---,0.00,VWS V14.01,2013-01-21 08:05:00,
2013-01-21 03:10:00,27.0,10.9,30.01,WNW,292,2.0,8.0,50,0.00,,---,0.00,VWS V14.01,2013-01-21 08:10:00,
2013-01-21 03:15:00,27.0,10.9,30.01,WNW,292,3.0,12.0,50,0.00,,---,0.00,VWS V14.01,2013-01-21 08:15:00,
2013-01-21 03:20:00,26.9,10.8,30.01,WNW,292,1.0,10.0,50,0.00,,---,0.00,VWS V14.01,2013-01-21 08:20:00,
2013-01-21 03:25:00,26.7,11.4,30.01,WNW,292,3.0,7.0,52,0.00,,---,0.00,VWS V14.01,2013-01-21 08:25:00,
2013-01-21 03:30:00,26.7,11.4,30.01,WNW,292,3.0,11.0,52,0.00,,---,0.00,VWS V14.01,2013-01-21 08:30:00,
2013-01-21 03:35:00,26.6,11.8,30.01,West,270,2.0,5.0,53,0.00,,---,0.00,VWS V14.01,2013-01-21 08:35:00,
2013-01-21 03:40:00,26.4,11.2,30.01,West,270,2.0,7.0,52,0.00,,---,0.00,VWS V14.01,2013-01-21 08:40:00,
2013-01-21 03:45:00,26.4,11.6,30.02,WNW,292,3.0,7.0,53,0.00,,---,0.00,VWS V14.01,2013-01-21 08:45:00,
2013-01-21 03:50:00,26.3,11.1,30.02,West,270,4.0,10.0,52,0.00,,---,0.00,VWS V14.01,2013-01-21 08:50:00,
2013-01-21 03:55:00,26.3,10.6,30.02,WNW,292,6.0,18.0,51,0.00,,---,0.00,VWS V14.01,2013-01-21 08:55:00,
2013-01-21 04:00:00,26.1,10.0,30.03,West,270,4.0,11.0,50,0.00,,---,0.00,VWS V14.01,2013-01-21 09:00:00,
2013-01-21 04:05:00,26.1,9.6,30.03,West,270,5.0,11.0,49,0.00,,---,0.00,VWS V14.01,2013-01-21 09:05:00,
2013-01-21 04:10:00,26.1,9.6,30.03,WNW,292,5.0,13.0,49,0.00,,---,0.00,VWS V14.01,2013-01-21 09:10:00,
2013-01-21 04:15:00,26.0,9.0,30.03,WNW,292,5.0,12.0,48,0.00,,---,0.00,VWS V14.01,2013-01-21 09:15:00,
2013-01-21 04:20:00,26.0,9.0,30.03,WSW,248,5.0,13.0,48,0.00,,---,0.00,VWS V14.01,2013-01-21 09:20:00,
2013-01-21 04:25:00,26.0,9.5,30.03,WNW,292,7.0,20.0,49,0.00,,---,0.00,VWS V14.01,2013-01-21 09:25:00,
2013-01-21 04:30:00,25.8,8.8,30.03,WNW,292,4.0,8.0,48,0.00,,---,0.00,VWS V14.01,2013-01-21 09:30:00,
2013-01-21 04:35:00,25.8,9.3,30.03,West,270,4.0,12.0,49,0.00,,---,0.00,VWS V14.01,2013-01-21 09:35:00,
2013-01-21 04:40:00,25.8,9.7,30.03,WSW,248,4.0,12.0,50,0.00,,---,0.00,VWS V14.01,2013-01-21 09:40:00,
2013-01-21 04:45:00,25.7,9.6,30.04,West,270,3.0,7.0,50,0.00,,---,0.00,VWS V14.01,2013-01-21 09:45:00,
2013-01-21 04:50:00,25.6,10.0,30.04,WNW,292,3.0,8.0,51,0.00,,---,0.00,VWS V14.01,2013-01-21 09:50:00,
2013-01-21 04:55:00,25.6,10.0,30.04,WNW,292,2.0,8.0,51,0.00,,---,0.00,VWS V14.01,2013-01-21 09:55:00,
2013-01-21 05:00:00,25.4,10.2,30.04,WNW,292,3.0,7.0,52,0.00,,---,0.00,VWS V14.01,2013-01-21 10:00:00,
2013-01-21 05:05:00,25.3,9.7,30.04,NW,315,2.0,6.0,51,0.00,,---,0.00,VWS V14.01,2013-01-21 10:05:00,
2013-01-21 05:10:00,25.3,10.1,30.04,West,270,2.0,7.0,52,0.00,,---,0.00,VWS V14.01,2013-01-21 10:10:00,
2013-01-21 05:15:00,25.1,9.5,30.05,West,270,2.0,10.0,51,0.00,,---,0.00,VWS V14.01,2013-01-21 10:15:00,
2013-01-21 05:20:00,25.0,9.9,30.05,NNW,338,2.0,9.0,52,0.00,,---,0.00,VWS V14.01,2013-01-21 10:20:00,
2013-01-21 05:25:00,25.0,10.7,30.05,NW,315,1.0,5.0,54,0.00,,---,0.00,VWS V14.01,2013-01-21 10:25:00,
2013-01-21 05:30:00,24.8,10.1,30.05,NW,315,1.0,3.0,53,0.00,,---,0.00,VWS V14.01,2013-01-21 10:30:00,
2013-01-21 05:35:00,24.7,10.9,30.05,NW,315,0.0,5.0,55,0.00,,---,0.00,VWS V14.01,2013-01-21 10:35:00,
2013-01-21 05:40:00,24.5,10.2,30.05,NW,315,0.0,3.0,54,0.00,,---,0.00,VWS V14.01,2013-01-21 10:40:00,
2013-01-21 05:45:00,24.4,10.1,30.06,NW,315,2.0,7.0,54,0.00,,---,0.00,VWS V14.01,2013-01-21 10:45:00,
2013-01-21 05:50:00,24.4,10.6,30.06,WNW,292,2.0,6.0,55,0.00,,---,0.00,VWS V14.01,2013-01-21 10:50:00,
2013-01-21 05:55:00,24.2,10.4,30.06,WNW,292,1.0,6.0,55,0.00,,---,0.00,VWS V14.01,2013-01-21 10:55:00,
2013-01-21 06:00:00,24.1,10.3,30.06,WNW,292,1.0,5.0,55,0.00,,---,0.00,VWS V14.01,2013-01-21 11:00:00,
2013-01-21 06:05:00,24.1,10.3,30.06,WNW,292,1.0,5.0,55,0.00,,---,0.00,VWS V14.01,2013-01-21 11:05:00,
2013-01-21 06:10:00,23.9,10.1,30.06,WNW,292,1.0,3.0,55,0.00,,---,0.00,VWS V14.01,2013-01-21 11:10:00,
2013-01-21 06:15:00,23.8,10.0,30.07,WNW,292,0.0,3.0,55,0.00,,---,0.00,VWS V14.01,2013-01-21 11:15:00,
2013-01-21 06:20:00,23.6,9.8,30.07,WNW,292,1.0,5.0,55,0.00,,---,0.00,VWS V14.01,2013-01-21 11:20:00,
2013-01-21 06:25:00,23.6,10.2,30.07,WNW,292,0.0,1.0,56,0.00,,---,0.00,VWS V14.01,2013-01-21 11:25:00,
2013-01-21 06:30:00,23.5,10.1,30.07,WNW,292,0.0,2.0,56,0.00,,---,0.00,VWS V14.01,2013-01-21 11:30:00,
2013-01-21 06:35:00,23.3,9.9,30.07,WNW,292,0.0,2.0,56,0.00,,---,0.00,VWS V14.01,2013-01-21 11:35:00,
2013-01-21 06:40:00,23.3,10.3,30.07,WNW,292,0.0,2.0,57,0.00,,---,0.00,VWS V14.01,2013-01-21 11:40:00,
2013-01-21 06:45:00,23.2,10.2,30.07,WNW,292,0.0,2.0,57,0.00,,---,0.00,VWS V14.01,2013-01-21 11:45:00,
2013-01-21 06:50:00,23.0,10.4,30.07,WNW,292,0.0,0.0,58,0.00,,---,0.00,VWS V14.01,2013-01-21 11:50:00,
2013-01-21 06:55:00,22.9,10.7,30.07,WNW,292,0.0,0.0,59,0.00,,---,0.00,VWS V14.01,2013-01-21 11:55:00,
2013-01-21 07:00:00,22.7,10.5,30.08,WNW,292,1.0,3.0,59,0.00,,---,0.00,VWS V14.01,2013-01-21 12:00:00,
2013-01-21 07:05:00,22.7,10.2,30.08,WNW,292,0.0,1.0,58,0.00,,---,0.00,VWS V14.01,2013-01-21 12:05:00,
2013-01-21 07:10:00,22.5,9.6,30.08,WNW,292,0.0,0.0,57,0.00,,---,0.00,VWS V14.01,2013-01-21 12:10:00,
2013-01-21 07:15:00,22.5,10.0,30.08,WNW,292,0.0,0.0,58,0.00,,---,0.00,VWS V14.01,2013-01-21 12:15:00,
2013-01-21 07:20:00,22.4,10.3,30.08,WNW,292,0.0,0.0,59,0.00,,---,0.00,VWS V14.01,2013-01-21 12:20:00,
2013-01-21 07:25:00,22.2,10.1,30.08,WNW,292,0.0,0.0,59,0.00,,---,0.00,VWS V14.01,2013-01-21 12:25:00,
2013-01-21 07:30:00,22.1,10.4,30.08,WNW,292,0.0,0.0,60,0.00,,---,0.00,VWS V14.01,2013-01-21 12:30:00,
2013-01-21 07:35:00,21.9,10.2,30.08,WNW,292,0.0,0.0,60,0.00,,---,0.00,VWS V14.01,2013-01-21 12:35:00,
2013-01-21 07:40:00,21.9,10.5,30.08,WNW,292,0.0,0.0,61,0.00,,---,0.00,VWS V14.01,2013-01-21 12:40:00,
2013-01-21 07:45:00,21.8,11.2,30.10,WNW,292,0.0,0.0,63,0.00,,---,0.00,VWS V14.01,2013-01-21 12:45:00,
2013-01-21 07:50:00,21.8,11.5,30.10,WNW,292,0.0,0.0,64,0.00,,---,0.00,VWS V14.01,2013-01-21 12:50:00,
2013-01-21 07:55:00,21.9,11.6,30.10,WNW,292,1.0,3.0,64,0.00,,---,0.00,VWS V14.01,2013-01-21 12:55:00,
2013-01-21 08:00:00,22.1,11.8,30.11,WNW,292,1.0,3.0,64,0.00,,---,0.00,VWS V14.01,2013-01-21 13:00:00,
2013-01-21 08:05:00,22.2,11.5,30.11,WNW,292,2.0,6.0,63,0.00,,---,0.00,VWS V14.01,2013-01-21 13:05:00,
2013-01-21 08:10:00,22.5,11.5,30.11,WNW,292,2.0,5.0,62,0.00,,---,0.00,VWS V14.01,2013-01-21 13:10:00,
2013-01-21 08:15:00,23.0,10.8,30.11,WSW,248,3.0,7.0,59,0.00,,---,0.00,VWS V14.01,2013-01-21 13:15:00,
2013-01-21 08:20:00,23.5,9.7,30.11,West,270,4.0,9.0,55,0.00,,---,0.00,VWS V14.01,2013-01-21 13:20:00,
2013-01-21 08:25:00,24.1,9.5,30.11,West,270,4.0,8.0,53,0.00,,---,0.00,VWS V14.01,2013-01-21 13:25:00,
2013-01-21 08:30:00,24.5,10.2,30.11,NNW,338,1.0,3.0,54,0.00,,---,0.00,VWS V14.01,2013-01-21 13:30:00,
2013-01-21 08:35:00,24.8,9.2,30.11,WSW,248,4.0,10.0,51,0.00,,---,0.00,VWS V14.01,2013-01-21 13:35:00,
2013-01-21 08:40:00,25.1,9.1,30.11,WNW,292,3.0,6.0,50,0.00,,---,0.00,VWS V14.01,2013-01-21 13:40:00,
2013-01-21 08:45:00,25.4,8.9,30.11,West,270,3.0,9.0,49,0.00,,---,0.00,VWS V14.01,2013-01-21 13:45:00,
2013-01-21 08:50:00,25.8,8.4,30.11,WSW,248,3.0,10.0,47,0.00,,---,0.00,VWS V14.01,2013-01-21 13:50:00,
2013-01-21 08:55:00,26.3,8.8,30.11,WSW,248,2.0,6.0,47,0.00,,---,0.00,VWS V14.01,2013-01-21 13:55:00,
2013-01-21 09:00:00,26.6,9.6,30.11,NW,315,3.0,6.0,48,0.00,,---,0.00,VWS V14.01,2013-01-21 14:00:00,
2013-01-21 09:05:00,26.7,8.7,30.11,WNW,292,3.0,17.0,46,0.00,,---,0.00,VWS V14.01,2013-01-21 14:05:00,
2013-01-21 09:10:00,26.9,8.9,30.11,West,270,3.0,12.0,46,0.00,,---,0.00,VWS V14.01,2013-01-21 14:10:00,
2013-01-21 09:15:00,26.9,8.9,30.09,NW,315,2.0,7.0,46,0.00,,---,0.00,VWS V14.01,2013-01-21 14:15:00,
2013-01-21 09:20:00,27.0,8.0,30.09,West,270,3.0,7.0,44,0.00,,---,0.00,VWS V14.01,2013-01-21 14:20:00,
2013-01-21 09:25:00,27.3,8.3,30.09,West,270,1.0,3.0,44,0.00,,---,0.00,VWS V14.01,2013-01-21 14:25:00,
2013-01-21 09:30:00,27.6,8.0,30.10,North,0,3.0,8.0,43,0.00,,---,0.00,VWS V14.01,2013-01-21 14:30:00,
2013-01-21 09:35:00,27.8,8.2,30.10,North,0,2.0,5.0,43,0.00,,---,0.00,VWS V14.01,2013-01-21 14:35:00,
2013-01-21 09:40:00,27.9,7.8,30.10,North,0,4.0,12.0,42,0.00,,---,0.00,VWS V14.01,2013-01-21 14:40:00,
2013-01-21 09:45:00,27.9,8.3,30.10,NW,315,2.0,6.0,43,0.00,,---,0.00,VWS V14.01,2013-01-21 14:45:00,
2013-01-21 09:50:00,28.1,9.0,30.10,NW,315,2.0,7.0,44,0.00,,---,0.00,VWS V14.01,2013-01-21 14:50:00,
2013-01-21 09:55:00,28.2,9.1,30.10,WNW,292,3.0,7.0,44,0.00,,---,0.00,VWS V14.01,2013-01-21 14:55:00,
2013-01-21 10:00:00,28.4,8.8,30.10,WNW,292,3.0,7.0,43,0.00,,---,0.00,VWS V14.01,2013-01-21 15:00:00,
2013-01-21 10:05:00,28.8,8.6,30.10,WSW,248,3.0,10.0,42,0.00,,---,0.00,VWS V14.01,2013-01-21 15:05:00,
2013-01-21 10:10:00,29.1,9.4,30.10,North,0,2.0,8.0,43,0.00,,---,0.00,VWS V14.01,2013-01-21 15:10:00,
2013-01-21 10:15:00,29.3,8.5,30.10,WNW,292,1.0,5.0,41,0.00,,---,0.00,VWS V14.01,2013-01-21 15:15:00,
2013-01-21 10:20:00,29.5,9.2,30.10,WNW,292,2.0,6.0,42,0.00,,---,0.00,VWS V14.01,2013-01-21 15:20:00,
2013-01-21 10:25:00,29.7,8.9,30.10,NW,315,2.0,5.0,41,0.00,,---,0.00,VWS V14.01,2013-01-21 15:25:00,
2013-01-21 10:30:00,29.8,8.4,30.10,NW,315,1.0,4.0,40,0.00,,---,0.00,VWS V14.01,2013-01-21 15:30:00,
2013-01-21 10:35:00,29.8,9.0,30.10,NW,315,1.0,4.0,41,0.00,,---,0.00,VWS V14.01,2013-01-21 15:35:00,
2013-01-21 10:40:00,29.8,7.9,30.10,SW,225,2.0,7.0,39,0.00,,---,0.00,VWS V14.01,2013-01-21 15:40:00,
2013-01-21 10:45:00,29.7,8.9,30.09,West,270,2.0,7.0,41,0.00,,---,0.00,VWS V14.01,2013-01-21 15:45:00,
2013-01-21 10:50:00,29.5,8.2,30.09,West,270,2.0,6.0,40,0.00,,---,0.00,VWS V14.01,2013-01-21 15:50:00,
2013-01-21 10:55:00,29.4,8.6,30.09,West,270,2.0,6.0,41,0.00,,---,0.00,VWS V14.01,2013-01-21 15:55:00,
2013-01-21 11:00:00,29.4,9.2,30.08,West,270,1.0,5.0,42,0.00,,---,0.00,VWS V14.01,2013-01-21 16:00:00,
2013-01-21 11:05:00,29.4,9.2,30.08,West,270,3.0,8.0,42,0.00,,---,0.00,VWS V14.01,2013-01-21 16:05:00,
2013-01-21 11:10:00,29.5,9.2,30.08,West,270,1.0,5.0,42,0.00,,---,0.00,VWS V14.01,2013-01-21 16:10:00,
2013-01-21 11:15:00,29.5,8.2,30.06,West,270,1.0,5.0,40,0.00,,---,0.00,VWS V14.01,2013-01-21 16:15:00,
2013-01-21 11:20:00,29.7,8.4,30.06,West,270,3.0,6.0,40,0.00,,---,0.00,VWS V14.01,2013-01-21 16:20:00,
2013-01-21 11:25:00,29.8,9.0,30.06,West,270,1.0,4.0,41,0.00,,---,0.00,VWS V14.01,2013-01-21 16:25:00,
2013-01-21 11:30:00,30.0,8.6,30.06,WSW,248,3.0,7.0,40,0.00,,---,0.00,VWS V14.01,2013-01-21 16:30:00,
2013-01-21 11:35:00,30.0,8.6,30.06,WNW,292,3.0,8.0,40,0.00,,---,0.00,VWS V14.01,2013-01-21 16:35:00,
2013-01-21 11:40:00,30.1,8.1,30.06,SW,225,2.0,8.0,39,0.00,,---,0.00,VWS V14.01,2013-01-21 16:40:00,
2013-01-21 11:45:00,30.1,9.8,30.04,WSW,248,2.0,5.0,42,0.00,,---,0.00,VWS V14.01,2013-01-21 16:45:00,
2013-01-21 11:50:00,30.3,9.4,30.04,West,270,4.0,10.0,41,0.00,,---,0.00,VWS V14.01,2013-01-21 16:50:00,
2013-01-21 11:55:00,30.4,8.4,30.04,WSW,248,4.0,7.0,39,0.00,,---,0.00,VWS V14.01,2013-01-21 16:55:00,
2013-01-21 12:00:00,30.7,8.7,30.03,WSW,248,1.0,3.0,39,0.00,,---,0.00,VWS V14.01,2013-01-21 17:00:00,
2013-01-21 12:05:00,31.2,9.1,30.03,WSW,248,3.0,6.0,39,0.00,,---,0.00,VWS V14.01,2013-01-21 17:05:00,
2013-01-21 12:10:00,31.5,8.8,30.03,WSW,248,3.0,7.0,38,0.00,,---,0.00,VWS V14.01,2013-01-21 17:10:00,
2013-01-21 12:15:00,31.8,10.2,30.03,WSW,248,4.0,7.0,40,0.00,,---,0.00,VWS V14.01,2013-01-21 17:15:00,
2013-01-21 12:29:00,31.5,10.0,30.03,WSW,241,2.0,4.0,40,0.00,,---,0.00,VWS V14.01,2013-01-21 17:29:00,
2013-01-21 12:30:00,31.5,10.5,30.02,WSW,251,3.0,7.0,41,0.00,,---,0.00,VWS V14.01,2013-01-21 17:30:00,
2013-01-21 12:34:00,31.6,9.5,30.02,SW,232,11.0,13.0,39,0.00,,---,0.00,VWS V14.01,2013-01-21 17:34:00,
2013-01-21 12:35:00,31.5,8.8,30.02,West,260,5.0,13.0,38,0.00,,---,0.00,VWS V14.01,2013-01-21 17:35:00,
2013-01-21 12:39:00,31.5,8.8,30.02,WSW,240,2.0,5.0,38,0.00,,---,0.00,VWS V14.01,2013-01-21 17:39:00,
2013-01-21 12:40:00,31.5,8.8,30.02,South,179,1.0,6.0,38,0.00,,---,0.00,VWS V14.01,2013-01-21 17:40:00,
2013-01-21 12:44:00,31.3,9.2,30.02,WSW,243,11.0,11.0,39,0.00,,---,0.00,VWS V14.01,2013-01-21 17:44:00,
2013-01-21 12:45:00,31.2,8.0,30.01,WSW,239,11.0,11.0,37,0.00,,---,0.00,VWS V14.01,2013-01-21 17:45:00,
2013-01-21 12:49:00,30.9,8.9,30.01,WSW,243,3.0,11.0,39,0.00,,---,0.00,VWS V14.01,2013-01-21 17:49:00,
2013-01-21 12:50:00,30.9,8.9,30.01,WSW,243,2.0,11.0,39,0.00,,---,0.00,VWS V14.01,2013-01-21 17:50:00,
2013-01-21 12:54:00,30.7,8.7,30.01,WSW,240,0.0,5.0,39,0.00,,---,0.00,VWS V14.01,2013-01-21 17:54:00,
2013-01-21 12:55:00,30.7,9.2,30.01,WSW,243,0.0,5.0,40,0.00,,---,0.00,VWS V14.01,2013-01-21 17:55:00,
2013-01-21 12:59:00,31.0,9.0,30.01,WSW,246,4.0,5.0,39,0.00,,---,0.00,VWS V14.01,2013-01-21 17:59:00,
2013-01-21 13:00:00,31.0,8.4,30.00,WSW,244,0.0,5.0,38,0.00,,---,0.00,VWS V14.01,2013-01-21 18:00:00,
2013-01-21 13:05:00,31.3,8.6,30.00,SW,229,3.0,7.0,38,0.00,,---,0.00,VWS V14.01,2013-01-21 18:05:00,
2013-01-21 13:10:00,31.6,8.9,30.00,WSW,253,6.0,10.0,38,0.00,,---,0.00,VWS V14.01,2013-01-21 18:10:00,
2013-01-21 13:15:00,31.5,8.2,30.00,WNW,294,3.0,11.0,37,0.00,,---,0.00,VWS V14.01,2013-01-21 18:15:00,
2013-01-21 13:20:00,31.2,9.1,30.00,WSW,253,3.0,5.0,39,0.00,,---,0.00,VWS V14.01,2013-01-21 18:20:00,
2013-01-21 13:25:00,31.0,9.0,30.00,SSW,200,1.0,7.0,39,0.00,,---,0.00,VWS V14.01,2013-01-21 18:25:00,
2013-01-21 13:30:00,30.7,8.7,30.00,SSW,213,2.0,11.0,39,0.00,,---,0.00,VWS V14.01,2013-01-21 18:30:00,
2013-01-21 13:35:00,30.6,8.0,29.99,SW,236,3.0,10.0,38,0.00,,---,0.00,VWS V14.01,2013-01-21 18:35:00,
2013-01-21 13:40:00,30.3,8.9,29.99,WSW,237,5.0,7.0,40,0.00,,---,0.00,VWS V14.01,2013-01-21 18:40:00,
2013-01-21 13:45:00,30.3,8.9,29.99,WSW,240,6.0,8.0,40,0.00,,---,0.00,VWS V14.01,2013-01-21 18:45:00,
2013-01-21 13:50:00,30.1,8.7,29.99,SW,236,1.0,7.0,40,0.00,,---,0.00,VWS V14.01,2013-01-21 18:50:00,
2013-01-21 13:55:00,30.1,8.7,29.99,SSW,206,6.0,8.0,40,0.00,,---,0.00,VWS V14.01,2013-01-21 18:55:00,
2013-01-21 14:00:00,30.1,8.7,29.99,SW,229,5.0,5.0,40,0.00,,---,0.00,VWS V14.01,2013-01-21 19:00:00,
2013-01-21 14:05:00,30.3,10.5,29.99,SW,229,0.0,1.0,43,0.00,,---,0.00,VWS V14.01,2013-01-21 19:05:00,
2013-01-21 14:10:00,30.4,9.5,29.99,West,260,2.0,7.0,41,0.00,,---,0.00,VWS V14.01,2013-01-21 19:10:00,
2013-01-21 14:15:00,30.4,9.5,29.99,WSW,248,0.0,6.0,41,0.00,,---,0.00,VWS V14.01,2013-01-21 19:15:00,
2013-01-21 14:20:00,30.3,10.0,29.99,WSW,246,5.0,7.0,42,0.00,,---,0.00,VWS V14.01,2013-01-21 19:20:00,
2013-01-21 14:25:00,30.3,10.5,29.99,West,263,6.0,11.0,43,0.00,,---,0.00,VWS V14.01,2013-01-21 19:25:00,
2013-01-21 14:30:00,30.1,10.3,29.99,West,265,3.0,3.0,43,0.00,,---,0.00,VWS V14.01,2013-01-21 19:30:00,
2013-01-21 14:35:00,30.1,9.8,29.98,SSW,206,2.0,3.0,42,0.00,,---,0.00,VWS V14.01,2013-01-21 19:35:00,
2013-01-21 14:40:00,30.0,10.2,29.98,WSW,237,4.0,5.0,43,0.00,,---,0.00,VWS V14.01,2013-01-21 19:40:00,
2013-01-21 14:45:00,30.0,10.7,29.98,WSW,241,5.0,8.0,44,0.00,,---,0.00,VWS V14.01,2013-01-21 19:45:00,
2013-01-21 14:50:00,29.8,10.6,29.98,WSW,244,2.0,4.0,44,0.00,,---,0.00,VWS V14.01,2013-01-21 19:50:00,
2013-01-21 14:55:00,29.8,10.6,29.98,WSW,256,1.0,5.0,44,0.00,,---,0.00,VWS V14.01,2013-01-21 19:55:00,
2013-01-21 15:00:00,29.8,11.1,29.98,WSW,254,3.0,5.0,45,0.00,,---,0.00,VWS V14.01,2013-01-21 20:00:00,
2013-01-21 15:05:00,29.7,11.0,29.97,SSE,155,2.0,3.0,45,0.00,,---,0.00,VWS V14.01,2013-01-21 20:05:00,
2013-01-21 15:10:00,29.7,11.5,29.97,SW,232,2.0,5.0,46,0.00,,---,0.00,VWS V14.01,2013-01-21 20:10:00,
2013-01-21 15:15:00,29.7,11.0,29.97,SW,232,0.0,2.0,45,0.00,,---,0.00,VWS V14.01,2013-01-21 20:15:00,
2013-01-21 15:20:00,29.7,11.5,29.97,SW,232,3.0,3.0,46,0.00,,---,0.00,VWS V14.01,2013-01-21 20:20:00,
2013-01-21 15:25:00,29.5,11.8,29.97,SSW,212,3.0,6.0,47,0.00,,---,0.00,VWS V14.01,2013-01-21 20:25:00,
2013-01-21 15:30:00,29.5,11.8,29.97,SSW,206,1.0,5.0,47,0.00,,---,0.00,VWS V14.01,2013-01-21 20:30:00,
2013-01-21 15:35:00,29.4,12.6,29.97,SSW,200,0.0,3.0,49,0.00,,---,0.00,VWS V14.01,2013-01-21 20:35:00,
2013-01-21 15:40:00,29.4,13.5,29.97,SSW,200,5.0,5.0,51,0.00,,---,0.00,VWS V14.01,2013-01-21 20:40:00,
2013-01-21 15:45:00,29.3,13.4,29.97,SSW,199,2.0,3.0,51,0.00,,---,0.00,VWS V14.01,2013-01-21 20:45:00,
2013-01-21 15:50:00,29.3,13.4,29.96,SSW,199,2.0,3.0,51,0.00,,---,0.00,VWS V14.01,2013-01-21 20:50:00,
2013-01-21 15:55:00,29.1,13.7,29.96,SSW,199,0.0,5.0,52,0.00,,---,0.00,VWS V14.01,2013-01-21 20:55:00,
2013-01-21 16:00:00,29.0,14.0,29.96,South,182,2.0,6.0,53,0.00,,---,0.00,VWS V14.01,2013-01-21 21:00:00,
2013-01-21 16:05:00,28.8,14.3,29.95,South,191,2.0,3.0,54,0.00,,---,0.00,VWS V14.01,2013-01-21 21:05:00,
2013-01-21 16:10:00,28.8,14.7,29.95,South,191,0.0,2.0,55,0.00,,---,0.00,VWS V14.01,2013-01-21 21:10:00,
2013-01-21 16:15:00,28.7,14.6,29.95,South,191,0.0,3.0,55,0.00,,---,0.00,VWS V14.01,2013-01-21 21:15:00,
2013-01-21 16:20:00,28.7,14.6,29.95,South,191,1.0,3.0,55,0.00,,---,0.00,VWS V14.01,2013-01-21 21:20:00,
2013-01-21 16:25:00,28.5,15.2,29.95,South,191,2.0,4.0,57,0.00,,---,0.00,VWS V14.01,2013-01-21 21:25:00,
2013-01-21 16:30:00,28.4,15.5,29.95,South,191,4.0,5.0,58,0.00,,---,0.00,VWS V14.01,2013-01-21 21:30:00,
2013-01-21 16:35:00,28.2,16.1,29.94,South,191,3.0,3.0,60,0.00,,---,0.00,VWS V14.01,2013-01-21 21:35:00,
2013-01-21 16:40:00,28.2,16.5,29.94,South,191,3.0,3.0,61,0.00,,---,0.00,VWS V14.01,2013-01-21 21:40:00,
2013-01-21 16:45:00,28.1,17.1,29.94,South,191,2.0,3.0,63,0.00,,---,0.00,VWS V14.01,2013-01-21 21:45:00,
2013-01-21 16:50:00,27.9,17.7,29.94,South,181,0.0,3.0,65,0.00,,---,0.00,VWS V14.01,2013-01-21 21:50:00,
2013-01-21 16:55:00,27.6,18.1,29.94,South,181,2.0,2.0,67,0.00,,---,0.00,VWS V14.01,2013-01-21 21:55:00,
2013-01-21 17:00:00,27.5,18.3,29.94,South,181,0.0,3.0,68,0.00,,---,0.00,VWS V14.01,2013-01-21 22:00:00,
2013-01-21 17:05:00,27.3,19.1,29.94,South,181,0.0,3.0,71,0.00,,---,0.00,VWS V14.01,2013-01-21 22:05:00,
2013-01-21 17:10:00,27.0,19.8,29.94,South,181,0.0,2.0,74,0.00,,---,0.00,VWS V14.01,2013-01-21 22:10:00,
2013-01-21 17:15:00,26.9,20.7,29.94,South,181,1.0,3.0,77,0.00,,---,0.00,VWS V14.01,2013-01-21 22:15:00,
2013-01-21 17:20:00,26.6,20.4,29.93,South,181,0.0,3.0,77,0.00,,---,0.00,VWS V14.01,2013-01-21 22:20:00,
2013-01-21 17:25:00,26.4,21.1,29.93,South,181,0.0,3.0,80,0.00,,---,0.00,VWS V14.01,2013-01-21 22:25:00,
2013-01-21 17:30:00,26.3,21.6,29.93,South,181,0.0,2.0,82,0.00,,---,0.00,VWS V14.01,2013-01-21 22:30:00,
2013-01-21 17:35:00,26.3,21.6,29.92,South,181,0.0,0.0,82,0.00,,---,0.00,VWS V14.01,2013-01-21 22:35:00,
2013-01-21 17:40:00,26.1,21.6,29.92,South,181,0.0,0.0,83,0.00,,---,0.00,VWS V14.01,2013-01-21 22:40:00,
2013-01-21 17:45:00,26.1,21.9,29.92,South,181,0.0,0.0,84,0.00,,---,0.00,VWS V14.01,2013-01-21 22:45:00,
2013-01-21 17:50:00,26.1,21.9,29.92,South,181,0.0,0.0,84,0.00,,---,0.00,VWS V14.01,2013-01-21 22:50:00,
2013-01-21 17:55:00,26.1,21.9,29.92,South,181,0.0,0.0,84,0.00,,---,0.00,VWS V14.01,2013-01-21 22:55:00,
2013-01-21 18:00:00,26.1,22.2,29.92,South,181,0.0,0.0,85,0.00,,---,0.00,VWS V14.01,2013-01-21 23:00:00,
2013-01-21 18:05:00,26.1,22.5,29.92,South,181,0.0,0.0,86,0.00,,---,0.00,VWS V14.01,2013-01-21 23:05:00,
2013-01-21 18:10:00,26.1,22.5,29.92,South,181,0.0,0.0,86,0.00,,---,0.00,VWS V14.01,2013-01-21 23:10:00,
2013-01-21 18:15:00,26.1,22.5,29.92,South,181,0.0,0.0,86,0.00,,---,0.00,VWS V14.01,2013-01-21 23:15:00,
2013-01-21 18:20:00,26.1,22.5,29.93,South,181,0.0,0.0,86,0.00,,---,0.00,VWS V14.01,2013-01-21 23:20:00,
2013-01-21 18:25:00,26.1,22.8,29.93,South,181,0.0,0.0,87,0.00,,---,0.00,VWS V14.01,2013-01-21 23:25:00,
2013-01-21 18:30:00,26.3,23.0,29.93,South,181,0.0,0.0,87,0.00,,---,0.00,VWS V14.01,2013-01-21 23:30:00,
2013-01-21 18:35:00,26.3,23.0,29.92,South,181,0.0,0.0,87,0.00,,---,0.00,VWS V14.01,2013-01-21 23:35:00,
2013-01-21 18:40:00,26.3,23.0,29.92,South,181,0.0,0.0,87,0.00,,---,0.00,VWS V14.01,2013-01-21 23:40:00,
2013-01-21 18:45:00,26.3,23.2,29.92,South,181,0.0,0.0,88,0.00,,---,0.00,VWS V14.01,2013-01-21 23:45:00,
2013-01-21 18:50:00,26.3,23.2,29.92,South,181,0.0,0.0,88,0.00,,---,0.00,VWS V14.01,2013-01-21 23:50:00,
2013-01-21 18:55:00,26.3,23.2,29.92,South,181,0.0,0.0,88,0.00,,---,0.00,VWS V14.01,2013-01-21 23:55:00,
2013-01-21 19:00:00,26.3,23.2,29.92,South,181,0.0,0.0,88,0.00,,---,0.00,VWS V14.01,2013-01-22 00:00:00,
2013-01-21 19:05:00,26.3,23.2,29.91,South,181,0.0,0.0,88,0.00,,---,0.00,VWS V14.01,2013-01-22 00:05:00,
2013-01-21 19:10:00,26.3,23.2,29.91,South,181,0.0,2.0,88,0.00,,---,0.00,VWS V14.01,2013-01-22 00:10:00,
2013-01-21 19:15:00,26.1,23.0,29.91,South,181,0.0,3.0,88,0.00,,---,0.00,VWS V14.01,2013-01-22 00:15:00,
2013-01-21 19:20:00,26.1,23.3,29.91,South,184,0.0,0.0,89,0.00,,---,0.00,VWS V14.01,2013-01-22 00:20:00,
2013-01-21 19:25:00,26.1,23.3,29.91,South,184,0.0,0.0,89,0.00,,---,0.00,VWS V14.01,2013-01-22 00:25:00,
2013-01-21 19:30:00,26.1,23.3,29.91,South,185,0.0,1.0,89,0.00,,---,0.00,VWS V14.01,2013-01-22 00:30:00,
2013-01-21 19:35:00,26.1,23.3,29.91,South,185,0.0,0.0,89,0.00,,---,0.00,VWS V14.01,2013-01-22 00:35:00,
2013-01-21 19:40:00,26.1,23.3,29.91,South,185,1.0,2.0,89,0.00,,---,0.00,VWS V14.01,2013-01-22 00:40:00,
2013-01-21 19:45:00,26.1,23.3,29.91,NE,34,2.0,3.0,89,0.00,,---,0.00,VWS V14.01,2013-01-22 00:45:00,
2013-01-21 19:50:00,26.0,23.2,29.90,NE,34,1.0,3.0,89,0.00,,---,0.00,VWS V14.01,2013-01-22 00:50:00,
2013-01-21 19:55:00,26.0,23.2,29.90,NE,34,0.0,2.0,89,0.00,,---,0.00,VWS V14.01,2013-01-22 00:55:00,
2013-01-21 19:59:00,25.8,23.0,29.90,NE,34,0.0,1.0,89,0.00,,---,0.00,VWS V14.01,2013-01-22 00:59:00,
2013-01-21 20:00:00,25.8,23.0,29.89,NE,34,0.0,1.0,89,0.00,,---,0.00,VWS V14.01,2013-01-22 01:00:00,
2013-01-21 20:05:00,25.8,23.3,29.89,North,0,0.0,0.0,90,0.00,,---,0.00,VWS V14.01,2013-01-22 01:05:00,
2013-01-21 20:10:00,25.8,23.3,29.89,North,0,0.0,0.0,90,0.00,,---,0.00,VWS V14.01,2013-01-22 01:10:00,
2013-01-21 20:15:00,25.8,23.3,29.90,North,0,0.0,2.0,90,0.00,,---,0.00,VWS V14.01,2013-01-22 01:15:00,
2013-01-21 20:20:00,25.8,23.3,29.90,NE,45,1.0,6.0,90,0.00,,---,0.00,VWS V14.01,2013-01-22 01:20:00,
2013-01-21 20:25:00,25.8,23.3,29.90,WNW,292,0.0,3.0,90,0.00,,---,0.00,VWS V14.01,2013-01-22 01:25:00,
2013-01-21 20:30:00,25.8,23.3,29.89,WNW,292,0.0,0.0,90,0.00,,---,0.00,VWS V14.01,2013-01-22 01:30:00,
2013-01-21 20:35:00,25.8,23.5,29.89,WNW,292,0.0,0.0,91,0.00,,---,0.00,VWS V14.01,2013-01-22 01:35:00,
2013-01-21 20:40:00,25.8,23.5,29.89,WNW,292,0.0,0.0,91,0.00,,---,0.00,VWS V14.01,2013-01-22 01:40:00,
2013-01-21 20:45:00,25.8,23.5,29.88,WNW,292,0.0,0.0,91,0.00,,---,0.00,VWS V14.01,2013-01-22 01:45:00,
2013-01-21 20:50:00,25.8,23.5,29.88,WNW,292,0.0,3.0,91,0.00,,---,0.00,VWS V14.01,2013-01-22 01:50:00,
2013-01-21 20:55:00,25.7,23.4,29.88,WNW,292,0.0,2.0,91,0.00,,---,0.00,VWS V14.01,2013-01-22 01:55:00,
2013-01-21 21:00:00,25.7,23.4,29.87,WNW,292,0.0,1.0,91,0.00,,---,0.00,VWS V14.01,2013-01-22 02:00:00,
2013-01-21 21:05:00,25.7,23.4,29.87,WNW,292,0.0,0.0,91,0.00,,---,0.00,VWS V14.01,2013-01-22 02:05:00,
2013-01-21 21:10:00,25.7,23.4,29.87,WNW,292,0.0,0.0,91,0.00,,---,0.00,VWS V14.01,2013-01-22 02:10:00,
2013-01-21 21:15:00,25.6,23.3,29.86,WNW,292,0.0,0.0,91,0.00,,---,0.00,VWS V14.01,2013-01-22 02:15:00,
2013-01-21 21:20:00,25.6,23.3,29.86,WNW,292,0.0,0.0,91,0.00,,---,0.00,VWS V14.01,2013-01-22 02:20:00,
2013-01-21 21:25:00,25.6,23.3,29.86,WNW,292,0.0,0.0,91,0.00,,---,0.00,VWS V14.01,2013-01-22 02:25:00,
2013-01-21 21:30:00,25.6,23.3,29.86,WNW,292,0.0,0.0,91,0.00,,---,0.00,VWS V14.01,2013-01-22 02:30:00,
2013-01-21 21:35:00,25.6,23.3,29.86,WNW,292,0.0,0.0,91,0.00,,---,0.00,VWS V14.01,2013-01-22 02:35:00,
2013-01-21 21:40:00,25.6,23.3,29.86,North,0,1.0,3.0,91,0.00,,---,0.00,VWS V14.01,2013-01-22 02:40:00,
2013-01-21 21:45:00,25.6,23.6,29.85,North,0,1.0,2.0,92,0.00,,---,0.00,VWS V14.01,2013-01-22 02:45:00,
2013-01-21 21:50:00,25.6,23.6,29.85,North,0,1.0,3.0,92,0.00,,---,0.00,VWS V14.01,2013-01-22 02:50:00,
2013-01-21 21:55:00,25.6,23.6,29.85,North,0,0.0,0.0,92,0.00,,---,0.00,VWS V14.01,2013-01-22 02:55:00,
2013-01-21 22:00:00,25.6,23.6,29.84,North,0,0.0,3.0,92,0.00,,---,0.00,VWS V14.01,2013-01-22 03:00:00,
2013-01-21 22:05:00,25.4,23.4,29.84,North,0,0.0,0.0,92,0.00,,---,0.00,VWS V14.01,2013-01-22 03:05:00,
2013-01-21 22:10:00,25.4,23.4,29.84,North,0,0.0,0.0,92,0.00,,---,0.00,VWS V14.01,2013-01-22 03:10:00,
2013-01-21 22:15:00,25.4,23.4,29.83,North,0,0.0,0.0,92,0.00,,---,0.00,VWS V14.01,2013-01-22 03:15:00,
2013-01-21 22:20:00,25.4,23.4,29.83,North,0,0.0,0.0,92,0.00,,---,0.00,VWS V14.01,2013-01-22 03:20:00,
2013-01-21 22:25:00,25.4,23.4,29.83,North,0,0.0,3.0,92,0.00,,---,0.00,VWS V14.01,2013-01-22 03:25:00,
2013-01-21 22:30:00,25.3,23.3,29.82,North,0,1.0,3.0,92,0.00,,---,0.00,VWS V14.01,2013-01-22 03:30:00,
2013-01-21 22:35:00,25.3,23.3,29.82,North,0,1.0,3.0,92,0.00,,---,0.00,VWS V14.01,2013-01-22 03:35:00,
2013-01-21 22:45:00,25.1,23.1,29.82,North,1,0.0,1.0,92,0.00,,---,0.00,VWS V14.01,2013-01-22 03:45:00,
2013-01-21 22:46:00,25.1,23.1,29.82,North,1,0.0,1.0,92,0.00,,---,0.00,VWS V14.01,2013-01-22 03:46:00,
2013-01-21 22:51:00,25.1,23.1,29.82,North,1,0.0,2.0,92,0.00,,---,0.00,VWS V14.01,2013-01-22 03:51:00,
2013-01-21 22:56:00,25.1,23.1,29.82,North,0,0.0,3.0,92,0.00,,---,0.00,VWS V14.01,2013-01-22 03:56:00,
2013-01-21 23:01:00,25.1,23.1,29.81,North,0,0.0,3.0,92,0.00,,---,0.00,VWS V14.01,2013-01-22 04:01:00,
2013-01-21 23:06:00,25.1,23.1,29.81,North,0,0.0,3.0,92,0.00,,---,0.00,VWS V14.01,2013-01-22 04:06:00,
2013-01-21 23:11:00,25.1,23.1,29.81,North,0,0.0,0.0,92,0.00,,---,0.00,VWS V14.01,2013-01-22 04:11:00,
2013-01-21 23:16:00,25.1,23.1,29.79,North,0,0.0,0.0,92,0.00,,---,0.00,VWS V14.01,2013-01-22 04:16:00,
2013-01-21 23:21:00,25.0,23.0,29.79,North,0,1.0,3.0,92,0.00,,---,0.00,VWS V14.01,2013-01-22 04:21:00,
2013-01-21 23:26:00,25.0,23.0,29.79,NNW,329,1.0,5.0,92,0.00,,---,0.00,VWS V14.01,2013-01-22 04:26:00,
2013-01-21 23:31:00,25.0,23.0,29.77,North,356,0.0,4.0,92,0.00,,---,0.00,VWS V14.01,2013-01-22 04:31:00,
2013-01-21 23:36:00,25.0,23.0,29.77,North,356,0.0,5.0,92,0.00,,---,0.00,VWS V14.01,2013-01-22 04:36:00,
2013-01-21 23:41:00,25.0,23.0,29.77,WNW,298,0.0,3.0,92,0.00,,---,0.00,VWS V14.01,2013-01-22 04:41:00,
2013-01-21 23:46:00,24.8,22.8,29.78,NE,51,0.0,5.0,92,0.00,,---,0.00,VWS V14.01,2013-01-22 04:46:00,
2013-01-21 23:51:00,24.8,22.8,29.78,NE,51,0.0,0.0,92,0.00,,---,0.00,VWS V14.01,2013-01-22 04:51:00,
2013-01-21 23:56:00,24.8,22.8,29.78,NE,51,0.0,0.0,92,0.00,,---,0.00,VWS V14.01,2013-01-22 04:56:00,